createdAt,value
2019-04-19T00:01:50.785Z,3.97
2019-04-19T00:04:14.998Z,4.10
2019-04-19T00:06:45.989Z,4.43
2019-04-19T00:09:27.171Z,4.53
2019-04-19T00:11:52.596Z,4.53
2019-04-19T00:14:12.744Z,4.70
2019-04-19T00:16:40.620Z,7.20
2019-04-19T00:19:38.490Z,5.37
2019-04-19T00:22:05.236Z,4.40
2019-04-19T00:24:07.881Z,4.60
2019-04-19T00:26:37.965Z,4.20
2019-04-19T00:29:07.648Z,4.00
2019-04-19T00:31:42.713Z,4.47
2019-04-19T00:34:04.275Z,4.37
2019-04-19T00:36:32.144Z,4.83
2019-04-19T00:39:23.788Z,4.70
2019-04-19T00:42:08.587Z,4.43
2019-04-19T00:44:59.012Z,4.10
2019-04-19T00:47:24.686Z,4.77
2019-04-19T00:49:53.992Z,5.23
2019-04-19T00:52:23.454Z,3.90
2019-04-19T00:54:49.174Z,4.37
2019-04-19T00:57:15.584Z,3.90
2019-04-19T00:59:40.485Z,3.80
2019-04-19T01:02:08.926Z,3.93
2019-04-19T01:04:34.746Z,4.50
2019-04-19T01:07:04.119Z,4.17
2019-04-19T01:09:44.294Z,4.20
2019-04-19T01:12:15.025Z,3.80
2019-04-19T01:14:38.342Z,3.90
2019-04-19T01:17:15.162Z,3.17
2019-04-19T01:19:28.306Z,4.00
2019-04-19T01:21:55.711Z,3.50
2019-04-19T01:24:29.195Z,3.63
2019-04-19T01:26:54.725Z,4.40
2019-04-19T01:29:23.006Z,3.80
2019-04-19T01:32:00.448Z,4.10
2019-04-19T01:34:24.912Z,4.00
2019-04-19T01:36:51.228Z,4.57
2019-04-19T01:39:32.453Z,4.60
2019-04-19T01:41:58.235Z,4.13
2019-04-19T01:44:56.867Z,3.93
2019-04-19T01:47:36.232Z,3.80
2019-04-19T01:50:14.230Z,4.70
2019-04-19T01:52:50.847Z,3.93
2019-04-19T01:55:11.206Z,3.80
2019-04-19T01:57:28.389Z,3.60
2019-04-19T01:59:58.685Z,4.37
2019-04-19T02:02:27.454Z,4.03
2019-04-19T02:05:01.856Z,3.87
2019-04-19T02:07:27.454Z,3.93
2019-04-19T02:10:06.351Z,3.83
2019-04-19T02:12:34.168Z,4.10
2019-04-19T02:14:59.513Z,4.20
2019-04-19T02:17:21.257Z,3.70
2019-04-19T02:19:55.573Z,3.90
2019-04-19T02:22:24.719Z,4.00
2019-04-19T02:24:52.000Z,4.47
2019-04-19T02:27:18.264Z,3.63
2019-04-19T02:29:54.111Z,4.27
2019-04-19T02:32:35.892Z,4.70
2019-04-19T02:45:12.107Z,3.70
2019-04-19T02:55:09.505Z,4.40
2019-04-19T03:07:55.565Z,4.03
2019-04-19T03:10:26.103Z,4.77
2019-04-19T03:13:10.080Z,4.90
2019-04-19T03:15:44.020Z,4.63
2019-04-19T03:18:15.899Z,4.60
2019-04-19T03:20:34.816Z,4.77
2019-04-19T03:23:03.190Z,4.33
2019-04-19T03:25:33.936Z,5.43
2019-04-19T03:28:00.972Z,4.10
2019-04-19T03:30:35.514Z,4.53
2019-04-19T03:35:34.166Z,5.03
2019-04-19T03:38:15.719Z,5.13
2019-04-19T03:40:37.410Z,5.07
2019-04-19T03:43:26.545Z,4.50
2019-04-19T03:45:51.505Z,4.60
2019-04-19T03:48:37.897Z,4.77
2019-04-19T03:50:44.396Z,4.50
2019-04-19T03:53:20.228Z,4.40
2019-04-19T03:55:57.853Z,4.47
2019-04-19T03:58:03.181Z,4.10
2019-04-19T04:00:26.098Z,4.60
2019-04-19T04:02:54.485Z,4.73
2019-04-19T04:05:23.078Z,4.60
2019-04-19T04:08:06.126Z,4.30
2019-04-19T04:10:44.233Z,4.80
2019-04-19T04:13:43.086Z,5.90
2019-04-19T04:16:40.729Z,4.67
2019-04-19T04:19:03.780Z,5.20
2019-04-19T04:21:36.874Z,4.83
2019-04-19T04:24:15.321Z,4.47
2019-04-19T04:26:40.525Z,4.30
2019-04-19T04:29:09.289Z,4.50
2019-04-19T04:31:44.469Z,4.00
2019-04-19T04:34:10.349Z,4.07
2019-04-19T04:36:45.193Z,4.53
2019-04-19T04:38:56.621Z,4.93
2019-04-19T04:41:27.882Z,5.07
2019-04-19T04:44:13.580Z,4.23
2019-04-19T04:47:02.276Z,4.27
2019-04-19T04:50:09.717Z,4.73
2019-04-19T04:52:37.721Z,4.43
2019-04-19T04:55:11.831Z,4.63
2019-04-19T04:57:47.479Z,4.30
2019-04-19T05:00:09.765Z,4.67
2019-04-19T05:02:56.210Z,4.30
2019-04-19T05:05:27.722Z,4.80
2019-04-19T05:07:59.766Z,4.37
2019-04-19T05:10:24.811Z,4.40
2019-04-19T05:13:10.636Z,3.97
2019-04-19T05:15:26.293Z,4.60
2019-04-19T05:18:00.089Z,4.53
2019-04-19T05:20:23.989Z,4.10
2019-04-19T05:22:56.189Z,4.50
2019-04-19T05:25:31.287Z,4.47
2019-04-19T05:27:50.249Z,4.63
2019-04-19T05:30:02.731Z,4.93
2019-04-19T05:32:35.756Z,4.97
2019-04-19T05:35:12.045Z,5.40
2019-04-19T05:37:54.361Z,4.67
2019-04-19T05:40:24.378Z,4.20
2019-04-19T05:42:56.534Z,4.97
2019-04-19T05:45:37.953Z,4.63
2019-04-19T05:47:55.793Z,4.93
2019-04-19T05:50:45.835Z,4.27
2019-04-19T05:53:00.089Z,4.70
2019-04-19T05:55:13.185Z,4.40
2019-04-19T05:57:56.644Z,4.50
2019-04-19T06:00:28.459Z,4.13
2019-04-19T06:02:58.562Z,4.10
2019-04-19T06:05:33.900Z,4.47
2019-04-19T06:07:54.754Z,5.20
2019-04-19T06:10:14.095Z,3.90
2019-04-19T06:12:42.451Z,4.23
2019-04-19T06:15:35.088Z,4.47
2019-04-19T06:18:00.413Z,4.30
2019-04-19T06:20:30.251Z,4.43
2019-04-19T06:23:03.841Z,4.23
2019-04-19T06:25:41.838Z,4.60
2019-04-19T06:30:36.616Z,4.07
2019-04-19T06:33:02.976Z,4.10
2019-04-19T06:35:27.008Z,4.30
2019-04-19T06:37:44.246Z,4.27
2019-04-19T06:40:21.135Z,4.07
2019-04-19T06:42:52.068Z,4.23
2019-04-19T06:45:27.840Z,3.80
2019-04-19T06:47:47.977Z,4.33
2019-04-19T06:50:10.900Z,4.43
2019-04-19T06:52:39.977Z,4.33
2019-04-19T06:55:17.512Z,4.33
2019-04-19T06:57:51.335Z,4.10
2019-04-19T07:00:20.080Z,4.40
2019-04-19T07:02:37.076Z,3.83
2019-04-19T07:05:20.432Z,4.07
2019-04-19T07:08:04.364Z,4.23
2019-04-19T07:10:34.703Z,4.00
2019-04-19T07:12:52.436Z,4.57
2019-04-19T07:15:33.713Z,3.90
2019-04-19T07:17:47.698Z,4.40
2019-04-19T07:20:14.850Z,4.00
2019-04-19T07:22:48.395Z,4.23
2019-04-19T07:25:27.618Z,3.73
2019-04-19T07:27:40.286Z,3.80
2019-04-19T07:30:01.747Z,3.87
2019-04-19T07:32:36.170Z,3.93
2019-04-19T07:35:10.228Z,4.07
2019-04-19T07:37:41.875Z,3.90
2019-04-19T07:40:17.501Z,4.17
2019-04-19T07:42:40.687Z,3.70
2019-04-19T07:45:03.517Z,4.03
2019-04-19T07:47:52.366Z,4.07
2019-04-19T07:55:13.633Z,3.93
2019-04-19T07:58:16.515Z,3.30
2019-04-19T08:00:52.326Z,3.60
2019-04-19T08:03:05.783Z,3.43
2019-04-19T08:05:36.916Z,3.43
2019-04-19T08:08:17.692Z,4.03
2019-04-19T08:15:56.606Z,3.60
2019-04-19T08:18:06.410Z,3.70
2019-04-19T08:27:45.218Z,3.13
2019-04-19T08:30:12.257Z,3.00
2019-04-19T08:32:36.419Z,3.07
2019-04-19T08:35:09.317Z,3.10
2019-04-19T08:37:37.824Z,3.33
2019-04-19T08:40:26.334Z,2.80
2019-04-19T08:43:06.228Z,2.90
2019-04-19T08:45:10.986Z,3.20
2019-04-19T08:48:03.467Z,3.47
2019-04-19T08:50:24.503Z,2.77
2019-04-19T08:52:59.211Z,3.20
2019-04-19T08:55:43.138Z,3.37
2019-04-19T08:57:59.163Z,3.33
2019-04-19T09:00:49.965Z,3.00
2019-04-19T09:03:06.652Z,2.80
2019-04-19T09:05:34.475Z,2.63
2019-04-19T09:08:05.724Z,3.10
2019-04-19T09:10:34.368Z,2.83
2019-04-19T09:13:18.424Z,3.00
2019-04-19T09:15:27.708Z,2.73
2019-04-19T09:20:34.502Z,2.70
2019-04-19T09:23:00.352Z,2.67
2019-04-19T09:25:52.611Z,2.73
2019-04-19T09:30:54.824Z,2.50
2019-04-19T09:33:15.728Z,2.40
2019-04-19T09:35:52.523Z,2.47
2019-04-19T09:38:18.131Z,2.40
2019-04-19T09:40:46.551Z,2.40
2019-04-19T09:43:20.091Z,2.30
2019-04-19T09:45:36.347Z,2.23
2019-04-19T09:48:03.729Z,2.40
2019-04-19T09:50:47.065Z,2.43
2019-04-19T09:53:30.737Z,2.60
2019-04-19T09:55:52.331Z,2.50
2019-04-19T09:58:16.958Z,2.10
2019-04-19T10:00:30.660Z,2.50
2019-04-19T10:03:03.835Z,2.10
2019-04-19T10:05:29.184Z,2.13
2019-04-19T10:07:56.796Z,2.07
2019-04-19T10:10:24.913Z,2.30
2019-04-19T10:12:53.782Z,2.20
2019-04-19T10:15:32.087Z,2.20
2019-04-19T10:18:00.609Z,2.77
2019-04-19T10:20:48.839Z,1.93
2019-04-19T10:23:17.548Z,2.10
2019-04-19T10:25:51.615Z,1.90
2019-04-19T10:28:15.996Z,2.13
2019-04-19T10:31:09.318Z,1.90
2019-04-19T10:33:48.058Z,1.70
2019-04-19T10:36:08.681Z,2.20
2019-04-19T10:38:36.202Z,2.20
2019-04-19T10:41:03.972Z,2.00
2019-04-19T10:43:32.791Z,2.17
2019-04-19T10:46:00.611Z,2.17
2019-04-19T10:48:28.184Z,2.37
2019-04-19T10:51:15.231Z,2.10
2019-04-19T10:53:42.726Z,2.40
2019-04-19T10:56:22.559Z,2.20
2019-04-19T10:58:49.957Z,2.40
2019-04-19T11:01:19.175Z,2.13
2019-04-19T11:03:47.028Z,2.10
2019-04-19T11:06:16.749Z,1.87
2019-04-19T11:08:44.574Z,2.37
2019-04-19T11:11:13.761Z,2.23
2019-04-19T11:13:42.063Z,2.47
2019-04-19T11:16:10.526Z,2.00
2019-04-19T11:18:37.859Z,1.93
2019-04-19T11:21:05.382Z,2.00
2019-04-19T11:23:33.605Z,1.90
2019-04-19T11:26:01.293Z,1.87
2019-04-19T11:28:29.158Z,2.07
2019-04-19T11:31:17.077Z,2.10
2019-04-19T11:33:43.822Z,1.83
2019-04-19T11:36:11.523Z,2.10
2019-04-19T11:38:38.975Z,1.73
2019-04-19T11:41:07.068Z,2.00
2019-04-19T11:43:35.568Z,1.73
2019-04-19T11:46:04.125Z,1.80
2019-04-19T11:48:33.436Z,2.50
2019-04-19T11:51:00.941Z,2.07
2019-04-19T11:53:34.635Z,2.10
2019-04-19T11:56:29.254Z,2.00
2019-04-19T11:58:58.315Z,1.50
2019-04-19T12:01:30.035Z,2.07
2019-04-19T12:03:58.462Z,1.93
2019-04-19T12:06:26.576Z,1.73
2019-04-19T12:08:54.282Z,1.90
2019-04-19T12:11:24.316Z,2.00
2019-04-19T12:13:52.275Z,1.63
2019-04-19T12:16:19.762Z,1.83
2019-04-19T12:18:48.718Z,1.70
2019-04-19T12:21:16.210Z,1.73
2019-04-19T12:23:44.550Z,1.90
2019-04-19T12:26:12.083Z,1.67
2019-04-19T12:28:39.658Z,1.70
2019-04-19T12:31:07.473Z,1.70
2019-04-19T12:33:35.359Z,1.87
2019-04-19T12:36:03.338Z,1.70
2019-04-19T12:38:32.322Z,2.20
2019-04-19T12:41:01.705Z,2.13
2019-04-19T12:43:29.911Z,1.90
2019-04-19T12:45:58.912Z,2.03
2019-04-19T12:48:27.628Z,1.70
2019-04-19T12:50:55.738Z,1.93
2019-04-19T12:53:23.215Z,1.70
2019-04-19T12:55:51.574Z,1.87
2019-04-19T12:58:19.704Z,1.80
2019-04-19T13:01:26.091Z,1.80
2019-04-19T13:04:20.350Z,1.97
2019-04-19T13:06:58.752Z,1.90
2019-04-19T13:09:26.826Z,1.70
2019-04-19T13:11:56.789Z,1.80
2019-04-19T13:14:23.825Z,1.57
2019-04-19T13:16:52.532Z,1.77
2019-04-19T13:19:20.796Z,1.57
2019-04-19T13:21:48.593Z,1.63
2019-04-19T13:24:16.274Z,1.60
2019-04-19T13:26:43.738Z,1.77
2019-04-19T13:29:11.428Z,1.70
2019-04-19T13:31:39.277Z,1.70
2019-04-19T13:34:07.210Z,1.93
2019-04-19T13:37:05.100Z,1.70
2019-04-19T13:39:54.258Z,1.80
2019-04-19T13:42:24.499Z,1.60
2019-04-19T13:45:01.857Z,1.80
2019-04-19T13:47:23.018Z,1.90
2019-04-19T13:49:53.279Z,1.97
2019-04-19T13:52:20.815Z,1.60
2019-04-19T13:54:48.530Z,1.73
2019-04-19T13:57:15.998Z,1.70
2019-04-19T13:59:50.988Z,1.50
2019-04-19T14:02:12.893Z,1.90
2019-04-19T14:04:41.654Z,1.90
2019-04-19T14:07:09.500Z,1.40
2019-04-19T14:09:37.137Z,1.73
2019-04-19T14:12:04.994Z,1.60
2019-04-19T14:14:32.895Z,1.70
2019-04-19T14:17:00.438Z,1.90
2019-04-19T14:19:29.154Z,1.53
2019-04-19T14:21:57.281Z,1.57
2019-04-19T14:24:25.110Z,1.50
2019-04-19T14:26:55.944Z,2.13
2019-04-19T14:29:21.869Z,1.53
2019-04-19T14:31:50.397Z,1.73
2019-04-19T14:34:19.343Z,1.80
2019-04-19T14:36:47.064Z,1.40
2019-04-19T14:39:14.478Z,1.77
2019-04-19T14:41:43.420Z,1.80
2019-04-19T14:44:11.309Z,1.70
2019-04-19T14:46:38.830Z,1.60
2019-04-19T14:49:07.051Z,1.70
2019-04-19T14:51:37.023Z,1.40
2019-04-19T14:54:04.712Z,1.70
2019-04-19T14:56:32.202Z,1.40
2019-04-19T14:58:59.600Z,1.80
2019-04-19T15:01:46.910Z,1.87
2019-04-19T15:04:30.893Z,1.57
2019-04-19T15:06:59.904Z,1.80
2019-04-19T15:09:27.734Z,1.60
2019-04-19T15:11:55.105Z,1.47
2019-04-19T15:14:24.021Z,1.67
2019-04-19T15:16:52.123Z,1.60
2019-04-19T15:19:20.847Z,1.80
2019-04-19T15:21:48.562Z,1.77
2019-04-19T15:24:16.849Z,1.50
2019-04-19T15:26:44.828Z,1.60
2019-04-19T15:29:13.248Z,1.60
2019-04-19T15:31:41.942Z,1.40
2019-04-19T15:34:09.705Z,1.50
2019-04-19T15:36:37.667Z,1.50
2019-04-19T15:39:08.075Z,1.40
2019-04-19T15:41:35.566Z,1.57
2019-04-19T15:44:04.178Z,1.57
2019-04-19T15:46:31.709Z,1.80
2019-04-19T15:49:00.054Z,1.70
2019-04-19T15:51:32.481Z,1.80
2019-04-19T15:53:58.163Z,1.50
2019-04-19T15:56:26.558Z,1.30
2019-04-19T15:58:54.574Z,1.70
2019-04-19T16:01:29.622Z,1.60
2019-04-19T16:03:58.800Z,1.67
2019-04-19T16:06:38.334Z,1.33
2019-04-19T16:09:35.607Z,1.73
2019-04-19T16:12:25.959Z,1.60
2019-04-19T16:14:53.741Z,1.70
2019-04-19T16:17:21.145Z,1.67
2019-04-19T16:19:49.103Z,1.30
2019-04-19T16:22:16.690Z,1.90
2019-04-19T16:24:45.174Z,1.40
2019-04-19T16:27:13.367Z,1.53
2019-04-19T16:29:48.833Z,1.53
2019-04-19T16:32:10.450Z,1.40
2019-04-19T16:34:38.796Z,1.43
2019-04-19T16:37:06.351Z,1.40
2019-04-19T16:39:33.753Z,1.40
2019-04-19T16:42:01.165Z,2.00
2019-04-19T16:44:29.748Z,1.60
2019-04-19T16:46:57.248Z,1.97
2019-04-19T16:49:24.781Z,1.80
2019-04-19T16:51:56.165Z,1.87
2019-04-19T16:54:22.546Z,1.97
2019-04-19T16:56:51.367Z,2.30
2019-04-19T16:59:19.744Z,1.97
2019-04-19T17:01:48.473Z,2.00
2019-04-19T17:04:16.025Z,1.67
2019-04-19T17:06:44.777Z,1.97
2019-04-19T17:09:13.127Z,1.90
2019-04-19T17:11:41.783Z,1.93
2019-04-19T17:14:09.324Z,2.10
2019-04-19T17:16:57.701Z,2.20
2019-04-19T17:19:44.914Z,1.83
2019-04-19T17:22:17.393Z,2.30
2019-04-19T17:24:41.511Z,2.73
2019-04-19T17:27:09.139Z,3.00
2019-04-19T17:29:37.423Z,2.30
2019-04-19T17:32:05.869Z,3.13
2019-04-19T17:34:34.089Z,3.20
2019-04-19T17:37:02.291Z,2.43
2019-04-19T17:39:30.924Z,2.50
2019-04-19T17:41:58.847Z,1.87
2019-04-19T17:44:26.392Z,2.70
2019-04-19T17:46:54.446Z,2.23
2019-04-19T17:49:22.507Z,3.27
2019-04-19T17:51:59.860Z,3.70
2019-04-19T17:54:41.541Z,4.43
2019-04-19T17:56:49.094Z,3.57
2019-04-19T17:59:18.399Z,3.70
2019-04-19T18:01:46.300Z,3.17
2019-04-19T18:04:16.500Z,3.60
2019-04-19T18:06:49.966Z,3.20
2019-04-19T18:09:16.196Z,3.30
2019-04-19T18:11:43.061Z,2.93
2019-04-19T18:14:11.581Z,3.27
2019-04-19T18:16:39.038Z,2.87
2019-04-19T18:19:07.219Z,2.83
2019-04-19T18:21:38.575Z,3.03
2019-04-19T18:24:11.562Z,2.63
2019-04-19T18:26:34.996Z,2.80
2019-04-19T18:29:03.058Z,2.30
2019-04-19T18:31:37.576Z,3.33
2019-04-19T18:34:04.141Z,3.37
2019-04-19T18:36:30.802Z,2.87
2019-04-19T18:38:58.942Z,2.63
2019-04-19T18:41:27.582Z,3.00
2019-04-19T18:44:07.464Z,2.50
2019-04-19T18:46:25.324Z,2.70
2019-04-19T18:48:53.624Z,2.53
2019-04-19T18:51:32.761Z,2.97
2019-04-19T18:53:59.802Z,2.70
2019-04-19T18:56:24.450Z,2.87
2019-04-19T18:58:50.281Z,3.20
2019-04-19T19:01:27.253Z,3.27
2019-04-19T19:03:48.402Z,3.57
2019-04-19T19:06:20.133Z,3.33
2019-04-19T19:08:52.116Z,2.73
2019-04-19T19:11:20.978Z,3.07
2019-04-19T19:13:46.683Z,2.33
2019-04-19T19:16:20.789Z,3.50
2019-04-19T19:18:50.229Z,3.00
2019-04-19T19:21:16.021Z,2.50
2019-04-19T19:24:05.010Z,2.13
2019-04-19T19:26:21.352Z,2.30
2019-04-19T19:28:40.465Z,2.60
2019-04-19T19:31:09.078Z,2.80
2019-04-19T19:33:44.412Z,2.80
2019-04-19T19:36:09.054Z,3.20
2019-04-19T19:38:40.165Z,3.60
2019-04-19T19:41:24.079Z,3.40
2019-04-19T19:43:48.396Z,3.60
2019-04-19T19:46:27.378Z,4.27
2019-04-19T19:49:19.110Z,3.70
2019-04-19T19:51:23.927Z,3.67
2019-04-19T19:54:03.217Z,3.40
2019-04-19T19:56:26.119Z,3.17
2019-04-19T19:58:41.452Z,2.93
2019-04-19T20:01:17.052Z,3.53
2019-04-19T20:03:38.759Z,4.70
2019-04-19T20:06:08.045Z,6.37
2019-04-19T20:08:37.967Z,5.47
2019-04-19T20:11:03.982Z,4.47
2019-04-19T20:13:38.458Z,4.60
2019-04-19T20:16:00.868Z,4.10
2019-04-19T20:18:37.284Z,3.90
2019-04-19T20:21:00.677Z,3.60
2019-04-19T20:23:35.271Z,4.00
2019-04-19T20:26:08.548Z,5.03
2019-04-19T20:28:32.736Z,5.43
2019-04-19T20:31:00.730Z,6.90
2019-04-19T20:33:34.433Z,5.17
2019-04-19T20:35:59.036Z,6.20
2019-04-19T20:38:30.041Z,5.47
2019-04-19T20:40:58.794Z,5.60
2019-04-19T20:43:39.608Z,6.00
2019-04-19T20:45:56.283Z,5.37
2019-04-19T20:48:26.318Z,5.90
2019-04-19T20:51:04.442Z,5.23
2019-04-19T20:53:35.900Z,4.60
2019-04-19T20:56:32.042Z,4.27
2019-04-19T20:58:35.515Z,4.10
2019-04-19T21:00:58.865Z,4.93
2019-04-19T21:03:30.893Z,6.43
2019-04-19T21:05:56.335Z,5.03
2019-04-19T21:08:25.332Z,4.10
2019-04-19T21:10:58.903Z,4.53
2019-04-19T21:13:23.328Z,3.60
2019-04-19T21:15:51.944Z,3.90
2019-04-19T21:18:23.495Z,4.10
2019-04-19T21:20:49.976Z,3.70
2019-04-19T21:23:22.590Z,4.00
2019-04-19T21:25:53.562Z,3.47
2019-04-19T21:28:16.814Z,3.50
2019-04-19T21:30:50.391Z,3.00
2019-04-19T21:33:15.937Z,3.90
2019-04-19T21:35:51.377Z,4.00
2019-04-19T21:38:17.668Z,3.40
2019-04-19T21:40:43.624Z,3.83
2019-04-19T21:43:11.250Z,3.10
2019-04-19T21:45:43.209Z,3.90
2019-04-19T21:48:08.843Z,3.57
2019-04-19T21:50:41.511Z,3.60
2019-04-19T21:53:09.143Z,3.63
2019-04-19T21:55:40.343Z,3.40
2019-04-19T21:58:09.054Z,4.80
2019-04-19T22:01:01.255Z,3.70
2019-04-19T22:03:28.262Z,3.50
2019-04-19T22:05:56.958Z,3.13
2019-04-19T22:08:31.179Z,3.73
2019-04-19T22:10:54.274Z,4.03
2019-04-19T22:13:25.297Z,4.70
2019-04-19T22:15:54.322Z,3.80
2019-04-19T22:18:21.386Z,3.73
2019-04-19T22:20:52.572Z,4.20
2019-04-19T22:23:20.473Z,3.90
2019-04-19T22:25:53.704Z,3.00
2019-04-19T22:28:17.438Z,3.03
2019-04-19T22:30:48.743Z,3.60
2019-04-19T22:33:14.388Z,3.90
2019-04-19T22:35:45.204Z,3.10
2019-04-19T22:38:17.163Z,2.97
2019-04-19T22:40:40.768Z,2.40
2019-04-19T22:43:11.558Z,2.40
2019-04-19T22:45:38.892Z,2.73
2019-04-19T22:48:14.035Z,2.47
2019-04-19T22:50:38.619Z,3.30
2019-04-19T22:53:05.649Z,3.20
2019-04-19T22:55:45.125Z,3.27
2019-04-19T22:58:03.042Z,3.30
2019-04-19T23:00:38.812Z,3.23
2019-04-19T23:03:14.271Z,3.07
2019-04-19T23:05:44.899Z,3.27
2019-04-19T23:08:10.360Z,4.10
2019-04-19T23:10:45.358Z,4.00
2019-04-19T23:13:11.417Z,4.30
2019-04-19T23:15:40.131Z,3.73
2019-04-19T23:18:13.260Z,3.20
2019-04-19T23:20:39.096Z,2.47
2019-04-19T23:23:13.742Z,3.20
2019-04-19T23:25:38.845Z,2.43
2019-04-19T23:28:16.813Z,2.93
2019-04-19T23:30:34.820Z,2.40
2019-04-19T23:33:07.084Z,2.40
2019-04-19T23:35:36.048Z,2.80
2019-04-19T23:38:01.069Z,3.03
2019-04-19T23:40:32.759Z,3.03
2019-04-19T23:42:58.521Z,3.03
2019-04-19T23:45:32.933Z,3.10
2019-04-19T23:47:56.145Z,2.43
2019-04-19T23:50:27.903Z,2.57
2019-04-19T23:52:57.507Z,2.90
2019-04-19T23:55:22.269Z,2.63
2019-04-19T23:57:53.780Z,2.33
